sensor_id;sensor_type;location;lat;lon;timestamp;temperature;humidity
18321;DHT22;54904;54.350;18.664;2023-03-23T00:01:09;14.70;99.90
18321;DHT22;54904;54.350;18.664;2023-03-23T00:03:39;14.70;99.90
18321;DHT22;54904;54.350;18.664;2023-03-23T00:06:08;14.60;99.90
18321;DHT22;54904;54.350;18.664;2023-03-23T00:08:37;14.60;99.90
18321;DHT22;54904;54.350;18.664;2023-03-23T00:11:10;14.60;99.90
18321;DHT22;54904;54.350;18.664;2023-03-23T00:13:41;14.60;99.90
18321;DHT22;54904;54.350;18.664;2023-03-23T00:16:08;14.60;99.90
18321;DHT22;54904;54.350;18.664;2023-03-23T00:18:44;14.60;99.90
18321;DHT22;54904;54.350;18.664;2023-03-23T00:21:12;14.60;99.90
18321;DHT22;54904;54.350;18.664;2023-03-23T00:23:40;14.60;99.90
18321;DHT22;54904;54.350;18.664;2023-03-23T00:26:11;14.60;99.90
18321;DHT22;54904;54.350;18.664;2023-03-23T00:28:38;14.60;99.90
18321;DHT22;54904;54.350;18.664;2023-03-23T00:31:07;14.60;99.90
18321;DHT22;54904;54.350;18.664;2023-03-23T00:33:37;14.60;99.90
18321;DHT22;54904;54.350;18.664;2023-03-23T00:36:07;14.50;99.90
18321;DHT22;54904;54.350;18.664;2023-03-23T00:38:37;14.50;99.90
18321;DHT22;54904;54.350;18.664;2023-03-23T00:41:05;14.50;99.90
18321;DHT22;54904;54.350;18.664;2023-03-23T00:43:33;14.50;99.90
18321;DHT22;54904;54.350;18.664;2023-03-23T00:46:02;14.50;99.90
18321;DHT22;54904;54.350;18.664;2023-03-23T00:48:35;14.50;99.90
18321;DHT22;54904;54.350;18.664;2023-03-23T00:51:06;14.40;99.90
18321;DHT22;54904;54.350;18.664;2023-03-23T00:53:39;14.40;99.90
18321;DHT22;54904;54.350;18.664;2023-03-23T00:56:08;14.40;99.90
18321;DHT22;54904;54.350;18.664;2023-03-23T00:58:35;14.40;99.90
18321;DHT22;54904;54.350;18.664;2023-03-23T01:01:03;14.40;99.90
18321;DHT22;54904;54.350;18.664;2023-03-23T01:03:30;14.40;99.90
18321;DHT22;54904;54.350;18.664;2023-03-23T01:06:04;14.40;99.90
18321;DHT22;54904;54.350;18.664;2023-03-23T01:08:33;14.40;99.90
18321;DHT22;54904;54.350;18.664;2023-03-23T01:11:05;14.40;99.90
18321;DHT22;54904;54.350;18.664;2023-03-23T01:13:33;14.40;99.90
18321;DHT22;54904;54.350;18.664;2023-03-23T01:16:01;14.40;99.90
18321;DHT22;54904;54.350;18.664;2023-03-23T01:18:28;14.40;99.90
18321;DHT22;54904;54.350;18.664;2023-03-23T01:20:56;14.40;99.90
18321;DHT22;54904;54.350;18.664;2023-03-23T01:23:23;14.30;99.90
18321;DHT22;54904;54.350;18.664;2023-03-23T01:25:50;14.30;99.90
18321;DHT22;54904;54.350;18.664;2023-03-23T01:28:21;14.20;99.90
18321;DHT22;54904;54.350;18.664;2023-03-23T01:30:48;14.20;99.90
18321;DHT22;54904;54.350;18.664;2023-03-23T01:33:15;14.20;99.90
18321;DHT22;54904;54.350;18.664;2023-03-23T01:35:43;14.20;99.90
18321;DHT22;54904;54.350;18.664;2023-03-23T01:38:10;14.20;99.90
18321;DHT22;54904;54.350;18.664;2023-03-23T01:40:37;14.20;99.90
18321;DHT22;54904;54.350;18.664;2023-03-23T01:43:09;14.30;99.90
18321;DHT22;54904;54.350;18.664;2023-03-23T01:45:41;14.30;99.90
18321;DHT22;54904;54.350;18.664;2023-03-23T01:48:13;14.30;99.90
18321;DHT22;54904;54.350;18.664;2023-03-23T01:50:49;14.30;99.90
18321;DHT22;54904;54.350;18.664;2023-03-23T01:53:18;14.30;99.90
18321;DHT22;54904;54.350;18.664;2023-03-23T01:55:49;14.30;99.90
18321;DHT22;54904;54.350;18.664;2023-03-23T01:58:19;14.30;99.90
18321;DHT22;54904;54.350;18.664;2023-03-23T02:00:53;14.20;99.90
18321;DHT22;54904;54.350;18.664;2023-03-23T02:03:22;14.20;99.90
18321;DHT22;54904;54.350;18.664;2023-03-23T02:05:51;14.20;99.90
18321;DHT22;54904;54.350;18.664;2023-03-23T02:08:27;14.20;99.90
18321;DHT22;54904;54.350;18.664;2023-03-23T02:10:55;14.10;99.90
18321;DHT22;54904;54.350;18.664;2023-03-23T02:13:22;14.10;99.90
18321;DHT22;54904;54.350;18.664;2023-03-23T02:15:58;14.10;99.90
18321;DHT22;54904;54.350;18.664;2023-03-23T02:22:06;14.10;99.90
18321;DHT22;54904;54.350;18.664;2023-03-23T02:24:52;14.10;99.90
18321;DHT22;54904;54.350;18.664;2023-03-23T02:27:39;14.10;99.90
18321;DHT22;54904;54.350;18.664;2023-03-23T02:30:18;14.00;99.90
18321;DHT22;54904;54.350;18.664;2023-03-23T02:33:17;14.00;99.90
18321;DHT22;54904;54.350;18.664;2023-03-23T02:35:51;14.00;99.90
18321;DHT22;54904;54.350;18.664;2023-03-23T02:38:23;14.00;99.90
18321;DHT22;54904;54.350;18.664;2023-03-23T02:40:54;13.90;99.90
18321;DHT22;54904;54.350;18.664;2023-03-23T02:43:25;13.90;99.90
18321;DHT22;54904;54.350;18.664;2023-03-23T02:45:54;13.90;99.90
18321;DHT22;54904;54.350;18.664;2023-03-23T02:48:28;13.90;99.90
18321;DHT22;54904;54.350;18.664;2023-03-23T02:50:57;13.80;99.90
18321;DHT22;54904;54.350;18.664;2023-03-23T02:53:26;13.80;99.90
18321;DHT22;54904;54.350;18.664;2023-03-23T02:55:56;13.80;99.90
18321;DHT22;54904;54.350;18.664;2023-03-23T02:58:28;13.70;99.90
18321;DHT22;54904;54.350;18.664;2023-03-23T03:00:58;13.70;99.90
18321;DHT22;54904;54.350;18.664;2023-03-23T03:03:30;13.60;99.90
18321;DHT22;54904;54.350;18.664;2023-03-23T03:06:06;13.50;99.90
18321;DHT22;54904;54.350;18.664;2023-03-23T03:08:41;13.50;99.90
18321;DHT22;54904;54.350;18.664;2023-03-23T03:11:13;13.40;99.90
18321;DHT22;54904;54.350;18.664;2023-03-23T03:13:46;13.40;99.90
18321;DHT22;54904;54.350;18.664;2023-03-23T03:16:23;13.40;99.90
18321;DHT22;54904;54.350;18.664;2023-03-23T03:18:56;13.40;99.90
18321;DHT22;54904;54.350;18.664;2023-03-23T03:21:27;13.30;99.90
18321;DHT22;54904;54.350;18.664;2023-03-23T03:23:59;13.30;99.90
18321;DHT22;54904;54.350;18.664;2023-03-23T03:26:29;13.40;99.90
18321;DHT22;54904;54.350;18.664;2023-03-23T03:29:10;13.30;99.90
18321;DHT22;54904;54.350;18.664;2023-03-23T03:31:47;13.40;99.90
18321;DHT22;54904;54.350;18.664;2023-03-23T03:34:17;13.30;99.90
18321;DHT22;54904;54.350;18.664;2023-03-23T03:36:48;13.30;99.90
18321;DHT22;54904;54.350;18.664;2023-03-23T03:39:16;13.30;99.90
18321;DHT22;54904;54.350;18.664;2023-03-23T03:41:45;13.30;99.90
18321;DHT22;54904;54.350;18.664;2023-03-23T03:44:13;13.30;99.90
18321;DHT22;54904;54.350;18.664;2023-03-23T03:46:40;13.30;99.90
18321;DHT22;54904;54.350;18.664;2023-03-23T03:49:10;13.30;99.90
18321;DHT22;54904;54.350;18.664;2023-03-23T03:51:40;13.30;99.90
18321;DHT22;54904;54.350;18.664;2023-03-23T03:54:14;13.30;99.90
18321;DHT22;54904;54.350;18.664;2023-03-23T03:56:41;13.30;99.90
18321;DHT22;54904;54.350;18.664;2023-03-23T03:59:31;13.30;99.90
18321;DHT22;54904;54.350;18.664;2023-03-23T04:02:30;13.20;99.90
18321;DHT22;54904;54.350;18.664;2023-03-23T04:04:57;13.20;99.90
18321;DHT22;54904;54.350;18.664;2023-03-23T04:07:26;13.20;99.90
18321;DHT22;54904;54.350;18.664;2023-03-23T04:09:56;13.10;99.90
18321;DHT22;54904;54.350;18.664;2023-03-23T04:12:23;13.00;99.90
18321;DHT22;54904;54.350;18.664;2023-03-23T04:14:56;13.00;99.90
18321;DHT22;54904;54.350;18.664;2023-03-23T04:17:30;13.00;99.90
18321;DHT22;54904;54.350;18.664;2023-03-23T04:19:57;13.00;99.90
18321;DHT22;54904;54.350;18.664;2023-03-23T04:22:28;12.90;99.90
18321;DHT22;54904;54.350;18.664;2023-03-23T04:24:59;12.90;99.90
18321;DHT22;54904;54.350;18.664;2023-03-23T04:27:29;12.90;99.90
18321;DHT22;54904;54.350;18.664;2023-03-23T04:29:59;12.90;99.90
18321;DHT22;54904;54.350;18.664;2023-03-23T04:32:38;12.90;99.90
18321;DHT22;54904;54.350;18.664;2023-03-23T04:35:09;12.90;99.90
18321;DHT22;54904;54.350;18.664;2023-03-23T04:37:45;12.90;99.90
18321;DHT22;54904;54.350;18.664;2023-03-23T04:40:15;12.90;99.90
18321;DHT22;54904;54.350;18.664;2023-03-23T04:42:50;12.90;99.90
18321;DHT22;54904;54.350;18.664;2023-03-23T04:45:35;12.90;99.90
18321;DHT22;54904;54.350;18.664;2023-03-23T04:48:04;13.00;99.90
18321;DHT22;54904;54.350;18.664;2023-03-23T04:50:40;13.00;99.90
18321;DHT22;54904;54.350;18.664;2023-03-23T04:53:18;13.00;99.90
18321;DHT22;54904;54.350;18.664;2023-03-23T04:55:48;13.00;99.90
18321;DHT22;54904;54.350;18.664;2023-03-23T04:58:17;13.00;99.90
18321;DHT22;54904;54.350;18.664;2023-03-23T05:01:08;13.00;99.90
18321;DHT22;54904;54.350;18.664;2023-03-23T05:03:49;13.00;99.90
18321;DHT22;54904;54.350;18.664;2023-03-23T05:06:16;13.00;99.90
18321;DHT22;54904;54.350;18.664;2023-03-23T05:08:45;13.00;99.90
18321;DHT22;54904;54.350;18.664;2023-03-23T05:11:12;13.00;99.90
18321;DHT22;54904;54.350;18.664;2023-03-23T05:13:42;13.00;99.90
18321;DHT22;54904;54.350;18.664;2023-03-23T05:16:11;13.00;99.90
18321;DHT22;54904;54.350;18.664;2023-03-23T05:18:40;13.10;99.90
18321;DHT22;54904;54.350;18.664;2023-03-23T05:21:10;13.10;99.90
18321;DHT22;54904;54.350;18.664;2023-03-23T05:23:41;13.10;99.90
18321;DHT22;54904;54.350;18.664;2023-03-23T05:26:18;13.10;99.90
18321;DHT22;54904;54.350;18.664;2023-03-23T05:28:49;13.10;99.90
18321;DHT22;54904;54.350;18.664;2023-03-23T05:31:24;13.10;99.90
18321;DHT22;54904;54.350;18.664;2023-03-23T05:33:52;13.20;99.90
18321;DHT22;54904;54.350;18.664;2023-03-23T05:36:25;13.20;99.90
18321;DHT22;54904;54.350;18.664;2023-03-23T05:39:22;13.20;99.90
18321;DHT22;54904;54.350;18.664;2023-03-23T05:42:10;13.30;99.90
18321;DHT22;54904;54.350;18.664;2023-03-23T05:44:47;13.20;99.90
18321;DHT22;54904;54.350;18.664;2023-03-23T05:47:14;13.30;99.90
18321;DHT22;54904;54.350;18.664;2023-03-23T05:49:48;13.20;99.90
18321;DHT22;54904;54.350;18.664;2023-03-23T05:52:18;13.20;99.90
18321;DHT22;54904;54.350;18.664;2023-03-23T05:54:46;13.20;99.90
18321;DHT22;54904;54.350;18.664;2023-03-23T05:57:16;13.20;99.90
18321;DHT22;54904;54.350;18.664;2023-03-23T05:59:51;13.30;99.90
18321;DHT22;54904;54.350;18.664;2023-03-23T06:02:22;13.30;99.90
18321;DHT22;54904;54.350;18.664;2023-03-23T06:04:52;13.30;99.90
18321;DHT22;54904;54.350;18.664;2023-03-23T06:07:27;13.30;99.90
18321;DHT22;54904;54.350;18.664;2023-03-23T06:10:01;13.30;99.90
18321;DHT22;54904;54.350;18.664;2023-03-23T06:12:38;13.30;99.90
18321;DHT22;54904;54.350;18.664;2023-03-23T06:15:20;13.30;99.90
18321;DHT22;54904;54.350;18.664;2023-03-23T06:18:07;13.30;99.90
18321;DHT22;54904;54.350;18.664;2023-03-23T06:20:48;13.30;99.90
18321;DHT22;54904;54.350;18.664;2023-03-23T06:23:43;13.30;99.90
18321;DHT22;54904;54.350;18.664;2023-03-23T06:26:13;13.30;99.90
18321;DHT22;54904;54.350;18.664;2023-03-23T06:28:44;13.30;99.90
18321;DHT22;54904;54.350;18.664;2023-03-23T06:31:12;13.30;99.90
18321;DHT22;54904;54.350;18.664;2023-03-23T06:33:41;13.30;99.90
18321;DHT22;54904;54.350;18.664;2023-03-23T06:36:40;13.30;99.90
18321;DHT22;54904;54.350;18.664;2023-03-23T06:39:16;13.30;99.90
18321;DHT22;54904;54.350;18.664;2023-03-23T06:41:57;13.30;99.90
18321;DHT22;54904;54.350;18.664;2023-03-23T06:44:27;13.40;99.90
18321;DHT22;54904;54.350;18.664;2023-03-23T06:46:54;13.40;99.90
18321;DHT22;54904;54.350;18.664;2023-03-23T06:49:26;13.40;99.90
18321;DHT22;54904;54.350;18.664;2023-03-23T06:52:03;13.40;99.90
18321;DHT22;54904;54.350;18.664;2023-03-23T06:54:32;13.40;99.90
18321;DHT22;54904;54.350;18.664;2023-03-23T06:57:01;13.50;99.90
18321;DHT22;54904;54.350;18.664;2023-03-23T06:59:30;13.50;99.90
18321;DHT22;54904;54.350;18.664;2023-03-23T07:01:57;13.50;99.90
18321;DHT22;54904;54.350;18.664;2023-03-23T07:04:25;13.60;99.90
18321;DHT22;54904;54.350;18.664;2023-03-23T07:07:01;13.60;99.90
18321;DHT22;54904;54.350;18.664;2023-03-23T07:09:32;13.70;99.90
18321;DHT22;54904;54.350;18.664;2023-03-23T07:12:00;13.70;99.90
18321;DHT22;54904;54.350;18.664;2023-03-23T07:14:33;13.80;99.90
18321;DHT22;54904;54.350;18.664;2023-03-23T07:17:01;14.00;99.90
18321;DHT22;54904;54.350;18.664;2023-03-23T07:19:31;13.90;99.90
18321;DHT22;54904;54.350;18.664;2023-03-23T07:21:59;14.00;99.90
18321;DHT22;54904;54.350;18.664;2023-03-23T07:24:26;14.00;99.90
18321;DHT22;54904;54.350;18.664;2023-03-23T07:27:12;14.10;99.90
18321;DHT22;54904;54.350;18.664;2023-03-23T07:29:40;14.10;99.90
18321;DHT22;54904;54.350;18.664;2023-03-23T07:32:15;14.10;99.90
18321;DHT22;54904;54.350;18.664;2023-03-23T07:34:42;14.10;99.90
18321;DHT22;54904;54.350;18.664;2023-03-23T07:37:33;14.20;99.90
18321;DHT22;54904;54.350;18.664;2023-03-23T07:40:01;14.20;99.90
18321;DHT22;54904;54.350;18.664;2023-03-23T07:42:41;14.30;99.90
18321;DHT22;54904;54.350;18.664;2023-03-23T07:45:12;14.30;99.90
18321;DHT22;54904;54.350;18.664;2023-03-23T07:47:41;14.40;99.90
18321;DHT22;54904;54.350;18.664;2023-03-23T07:50:09;14.40;99.90
18321;DHT22;54904;54.350;18.664;2023-03-23T07:52:41;14.50;99.90
18321;DHT22;54904;54.350;18.664;2023-03-23T07:55:11;14.60;99.90
18321;DHT22;54904;54.350;18.664;2023-03-23T07:58:04;14.70;99.90
18321;DHT22;54904;54.350;18.664;2023-03-23T08:00:36;14.60;99.90
18321;DHT22;54904;54.350;18.664;2023-03-23T08:03:08;14.70;99.90
18321;DHT22;54904;54.350;18.664;2023-03-23T08:06:07;14.70;99.90
18321;DHT22;54904;54.350;18.664;2023-03-23T08:08:47;14.70;99.90
18321;DHT22;54904;54.350;18.664;2023-03-23T08:11:50;14.70;99.90
18321;DHT22;54904;54.350;18.664;2023-03-23T08:14:54;14.70;99.90
18321;DHT22;54904;54.350;18.664;2023-03-23T08:17:58;14.70;99.90
18321;DHT22;54904;54.350;18.664;2023-03-23T08:20:47;14.70;99.90
18321;DHT22;54904;54.350;18.664;2023-03-23T08:23:27;14.70;99.50
18321;DHT22;54904;54.350;18.664;2023-03-23T08:26:10;14.60;99.50
18321;DHT22;54904;54.350;18.664;2023-03-23T08:28:50;14.70;99.60
18321;DHT22;54904;54.350;18.664;2023-03-23T08:31:44;14.70;99.60
18321;DHT22;54904;54.350;18.664;2023-03-23T08:34:29;14.70;99.50
18321;DHT22;54904;54.350;18.664;2023-03-23T08:37:02;14.70;99.40
18321;DHT22;54904;54.350;18.664;2023-03-23T08:39:30;14.70;99.30
18321;DHT22;54904;54.350;18.664;2023-03-23T08:42:26;14.70;99.30
18321;DHT22;54904;54.350;18.664;2023-03-23T08:45:24;14.70;99.30
18321;DHT22;54904;54.350;18.664;2023-03-23T08:48:04;14.60;99.30
18321;DHT22;54904;54.350;18.664;2023-03-23T08:51:05;14.70;99.30
18321;DHT22;54904;54.350;18.664;2023-03-23T08:53:38;14.70;99.20
18321;DHT22;54904;54.350;18.664;2023-03-23T08:56:25;14.70;99.20
18321;DHT22;54904;54.350;18.664;2023-03-23T08:59:13;14.70;99.30
18321;DHT22;54904;54.350;18.664;2023-03-23T09:02:02;14.70;99.30
18321;DHT22;54904;54.350;18.664;2023-03-23T09:04:36;14.70;99.50
18321;DHT22;54904;54.350;18.664;2023-03-23T09:07:24;14.70;99.60
18321;DHT22;54904;54.350;18.664;2023-03-23T09:09:51;14.70;99.80
18321;DHT22;54904;54.350;18.664;2023-03-23T09:12:18;14.70;99.90
18321;DHT22;54904;54.350;18.664;2023-03-23T09:14:46;14.70;99.90
18321;DHT22;54904;54.350;18.664;2023-03-23T09:17:13;14.70;99.90
18321;DHT22;54904;54.350;18.664;2023-03-23T09:19:40;14.80;99.90
18321;DHT22;54904;54.350;18.664;2023-03-23T09:22:07;14.80;99.90
18321;DHT22;54904;54.350;18.664;2023-03-23T09:24:36;14.80;99.90
18321;DHT22;54904;54.350;18.664;2023-03-23T09:27:04;14.80;99.90
18321;DHT22;54904;54.350;18.664;2023-03-23T09:29:31;14.80;99.90
18321;DHT22;54904;54.350;18.664;2023-03-23T09:32:00;14.80;99.90
18321;DHT22;54904;54.350;18.664;2023-03-23T09:34:27;14.80;99.90
18321;DHT22;54904;54.350;18.664;2023-03-23T09:36:55;14.80;99.90
18321;DHT22;54904;54.350;18.664;2023-03-23T09:39:22;14.80;99.90
18321;DHT22;54904;54.350;18.664;2023-03-23T09:42:04;14.80;99.90
18321;DHT22;54904;54.350;18.664;2023-03-23T09:44:45;14.80;99.90
18321;DHT22;54904;54.350;18.664;2023-03-23T09:47:19;14.80;99.90
18321;DHT22;54904;54.350;18.664;2023-03-23T09:49:52;14.70;99.90
18321;DHT22;54904;54.350;18.664;2023-03-23T09:52:20;14.70;99.90
18321;DHT22;54904;54.350;18.664;2023-03-23T09:54:49;14.80;99.90
18321;DHT22;54904;54.350;18.664;2023-03-23T09:57:24;14.80;99.90
18321;DHT22;54904;54.350;18.664;2023-03-23T09:59:59;14.80;99.90
18321;DHT22;54904;54.350;18.664;2023-03-23T10:02:43;14.80;99.90
18321;DHT22;54904;54.350;18.664;2023-03-23T10:05:29;14.80;99.90
18321;DHT22;54904;54.350;18.664;2023-03-23T10:07:59;14.80;99.90
18321;DHT22;54904;54.350;18.664;2023-03-23T10:10:38;14.90;99.90
18321;DHT22;54904;54.350;18.664;2023-03-23T10:13:14;14.80;99.90
18321;DHT22;54904;54.350;18.664;2023-03-23T10:15:44;14.90;99.90
18321;DHT22;54904;54.350;18.664;2023-03-23T10:18:15;14.90;99.90
18321;DHT22;54904;54.350;18.664;2023-03-23T10:20:48;14.80;99.90
18321;DHT22;54904;54.350;18.664;2023-03-23T10:23:39;14.90;99.90
18321;DHT22;54904;54.350;18.664;2023-03-23T10:26:15;14.90;99.90
18321;DHT22;54904;54.350;18.664;2023-03-23T10:28:51;14.80;99.90
18321;DHT22;54904;54.350;18.664;2023-03-23T10:31:21;14.80;99.90
18321;DHT22;54904;54.350;18.664;2023-03-23T10:33:56;14.80;99.90
18321;DHT22;54904;54.350;18.664;2023-03-23T10:36:27;14.80;99.90
18321;DHT22;54904;54.350;18.664;2023-03-23T10:39:02;14.80;99.90
18321;DHT22;54904;54.350;18.664;2023-03-23T10:41:30;14.80;99.90
18321;DHT22;54904;54.350;18.664;2023-03-23T10:43:58;14.80;99.90
18321;DHT22;54904;54.350;18.664;2023-03-23T10:46:36;14.80;99.90
18321;DHT22;54904;54.350;18.664;2023-03-23T10:49:10;14.80;99.90
18321;DHT22;54904;54.350;18.664;2023-03-23T10:51:43;14.80;99.90
18321;DHT22;54904;54.350;18.664;2023-03-23T10:54:11;14.80;99.90
18321;DHT22;54904;54.350;18.664;2023-03-23T10:56:40;14.80;99.90
18321;DHT22;54904;54.350;18.664;2023-03-23T10:59:14;14.80;99.90
18321;DHT22;54904;54.350;18.664;2023-03-23T11:01:53;14.80;99.90
18321;DHT22;54904;54.350;18.664;2023-03-23T11:04:23;14.80;99.90
18321;DHT22;54904;54.350;18.664;2023-03-23T11:06:53;14.80;99.90
18321;DHT22;54904;54.350;18.664;2023-03-23T11:09:34;14.80;99.90
18321;DHT22;54904;54.350;18.664;2023-03-23T11:12:01;14.80;99.90
18321;DHT22;54904;54.350;18.664;2023-03-23T11:14:31;14.80;99.90
18321;DHT22;54904;54.350;18.664;2023-03-23T11:17:01;14.80;99.90
18321;DHT22;54904;54.350;18.664;2023-03-23T11:19:30;14.80;99.90
18321;DHT22;54904;54.350;18.664;2023-03-23T11:22:05;14.80;99.90
18321;DHT22;54904;54.350;18.664;2023-03-23T11:24:35;14.90;99.90
18321;DHT22;54904;54.350;18.664;2023-03-23T11:27:04;14.90;99.90
18321;DHT22;54904;54.350;18.664;2023-03-23T11:29:36;14.90;99.90
18321;DHT22;54904;54.350;18.664;2023-03-23T11:32:10;14.90;99.90
18321;DHT22;54904;54.350;18.664;2023-03-23T11:34:41;15.00;99.90
18321;DHT22;54904;54.350;18.664;2023-03-23T11:37:11;15.10;99.90
18321;DHT22;54904;54.350;18.664;2023-03-23T11:39:52;15.00;99.90
18321;DHT22;54904;54.350;18.664;2023-03-23T11:42:22;15.00;99.90
18321;DHT22;54904;54.350;18.664;2023-03-23T11:45:15;15.00;99.90
18321;DHT22;54904;54.350;18.664;2023-03-23T11:47:55;15.00;99.90
18321;DHT22;54904;54.350;18.664;2023-03-23T11:50:25;15.00;99.90
18321;DHT22;54904;54.350;18.664;2023-03-23T11:53:01;14.90;99.90
18321;DHT22;54904;54.350;18.664;2023-03-23T11:55:34;14.90;99.90
18321;DHT22;54904;54.350;18.664;2023-03-23T11:58:10;14.90;99.90
18321;DHT22;54904;54.350;18.664;2023-03-23T12:00:46;14.90;99.90
18321;DHT22;54904;54.350;18.664;2023-03-23T12:03:46;15.00;99.90
18321;DHT22;54904;54.350;18.664;2023-03-23T12:06:20;15.10;99.90
18321;DHT22;54904;54.350;18.664;2023-03-23T12:09:08;15.50;99.90
18321;DHT22;54904;54.350;18.664;2023-03-23T12:12:12;15.70;99.90
18321;DHT22;54904;54.350;18.664;2023-03-23T12:14:50;16.00;99.90
18321;DHT22;54904;54.350;18.664;2023-03-23T12:17:30;16.10;99.90
18321;DHT22;54904;54.350;18.664;2023-03-23T12:20:12;16.20;99.90
18321;DHT22;54904;54.350;18.664;2023-03-23T12:22:55;16.20;99.90
18321;DHT22;54904;54.350;18.664;2023-03-23T12:31:32;16.20;99.90
18321;DHT22;54904;54.350;18.664;2023-03-23T12:34:08;16.10;99.90
18321;DHT22;54904;54.350;18.664;2023-03-23T12:36:53;16.20;99.90
18321;DHT22;54904;54.350;18.664;2023-03-23T12:39:55;16.40;99.90
18321;DHT22;54904;54.350;18.664;2023-03-23T12:42:30;16.80;99.90
18321;DHT22;54904;54.350;18.664;2023-03-23T12:45:05;17.10;99.90
18321;DHT22;54904;54.350;18.664;2023-03-23T12:47:39;17.10;99.90
18321;DHT22;54904;54.350;18.664;2023-03-23T12:50:16;17.00;99.80
18321;DHT22;54904;54.350;18.664;2023-03-23T12:52:57;16.90;99.70
18321;DHT22;54904;54.350;18.664;2023-03-23T12:55:33;16.70;99.90
18321;DHT22;54904;54.350;18.664;2023-03-23T12:58:05;16.50;99.90
18321;DHT22;54904;54.350;18.664;2023-03-23T13:00:49;16.30;99.90
18321;DHT22;54904;54.350;18.664;2023-03-23T13:03:24;16.10;99.90
18321;DHT22;54904;54.350;18.664;2023-03-23T13:05:59;16.00;99.90
18321;DHT22;54904;54.350;18.664;2023-03-23T13:08:31;15.90;99.90
18321;DHT22;54904;54.350;18.664;2023-03-23T13:11:01;15.90;99.90
18321;DHT22;54904;54.350;18.664;2023-03-23T13:13:43;16.10;99.90
18321;DHT22;54904;54.350;18.664;2023-03-23T13:16:17;16.20;99.90
18321;DHT22;54904;54.350;18.664;2023-03-23T13:18:55;16.10;99.90
18321;DHT22;54904;54.350;18.664;2023-03-23T13:21:29;16.20;99.90
18321;DHT22;54904;54.350;18.664;2023-03-23T13:24:05;16.00;99.90
18321;DHT22;54904;54.350;18.664;2023-03-23T13:26:43;16.40;99.90
18321;DHT22;54904;54.350;18.664;2023-03-23T13:29:14;16.00;99.90
18321;DHT22;54904;54.350;18.664;2023-03-23T13:31:47;16.00;99.90
18321;DHT22;54904;54.350;18.664;2023-03-23T13:34:18;16.10;99.90
18321;DHT22;54904;54.350;18.664;2023-03-23T13:36:55;16.10;99.90
18321;DHT22;54904;54.350;18.664;2023-03-23T13:39:25;16.10;99.90
18321;DHT22;54904;54.350;18.664;2023-03-23T13:42:04;16.10;99.90
18321;DHT22;54904;54.350;18.664;2023-03-23T13:44:43;16.10;99.90
18321;DHT22;54904;54.350;18.664;2023-03-23T13:47:25;16.10;99.90
18321;DHT22;54904;54.350;18.664;2023-03-23T13:49:58;16.10;99.90
18321;DHT22;54904;54.350;18.664;2023-03-23T13:52:37;16.20;99.90
18321;DHT22;54904;54.350;18.664;2023-03-23T13:55:30;16.20;99.90
18321;DHT22;54904;54.350;18.664;2023-03-23T13:58:10;16.10;99.90
18321;DHT22;54904;54.350;18.664;2023-03-23T14:00:48;16.10;99.90
18321;DHT22;54904;54.350;18.664;2023-03-23T14:03:19;16.10;99.90
18321;DHT22;54904;54.350;18.664;2023-03-23T14:05:49;16.00;99.90
18321;DHT22;54904;54.350;18.664;2023-03-23T14:08:37;16.00;99.90
18321;DHT22;54904;54.350;18.664;2023-03-23T14:11:12;16.00;99.90
18321;DHT22;54904;54.350;18.664;2023-03-23T14:13:44;16.00;99.90
18321;DHT22;54904;54.350;18.664;2023-03-23T14:16:18;16.00;99.90
18321;DHT22;54904;54.350;18.664;2023-03-23T14:18:52;16.00;99.90
18321;DHT22;54904;54.350;18.664;2023-03-23T14:21:31;15.90;99.90
18321;DHT22;54904;54.350;18.664;2023-03-23T14:24:11;15.90;99.90
18321;DHT22;54904;54.350;18.664;2023-03-23T14:26:39;15.90;99.90
18321;DHT22;54904;54.350;18.664;2023-03-23T14:29:10;15.90;99.90
18321;DHT22;54904;54.350;18.664;2023-03-23T14:31:38;15.90;99.90
18321;DHT22;54904;54.350;18.664;2023-03-23T14:34:13;15.90;99.90
18321;DHT22;54904;54.350;18.664;2023-03-23T14:36:44;15.80;99.90
18321;DHT22;54904;54.350;18.664;2023-03-23T14:39:20;15.80;99.90
18321;DHT22;54904;54.350;18.664;2023-03-23T14:41:47;15.80;99.90
18321;DHT22;54904;54.350;18.664;2023-03-23T14:44:17;15.80;99.90
18321;DHT22;54904;54.350;18.664;2023-03-23T14:46:45;15.80;99.90
18321;DHT22;54904;54.350;18.664;2023-03-23T14:49:20;15.80;99.90
18321;DHT22;54904;54.350;18.664;2023-03-23T14:52:03;15.80;99.90
18321;DHT22;54904;54.350;18.664;2023-03-23T14:54:32;15.90;99.90
18321;DHT22;54904;54.350;18.664;2023-03-23T14:57:09;15.90;99.90
18321;DHT22;54904;54.350;18.664;2023-03-23T14:59:40;15.90;99.90
18321;DHT22;54904;54.350;18.664;2023-03-23T15:02:11;15.80;99.90
18321;DHT22;54904;54.350;18.664;2023-03-23T15:04:44;15.80;99.90
18321;DHT22;54904;54.350;18.664;2023-03-23T15:07:13;15.80;99.90
18321;DHT22;54904;54.350;18.664;2023-03-23T15:09:45;15.80;99.90
18321;DHT22;54904;54.350;18.664;2023-03-23T15:12:21;15.80;99.90
18321;DHT22;54904;54.350;18.664;2023-03-23T15:14:52;15.80;99.90
18321;DHT22;54904;54.350;18.664;2023-03-23T15:17:22;15.80;99.90
18321;DHT22;54904;54.350;18.664;2023-03-23T15:19:51;15.70;99.90
18321;DHT22;54904;54.350;18.664;2023-03-23T15:22:21;15.70;99.90
18321;DHT22;54904;54.350;18.664;2023-03-23T15:24:51;15.80;99.90
18321;DHT22;54904;54.350;18.664;2023-03-23T15:27:25;15.70;99.90
18321;DHT22;54904;54.350;18.664;2023-03-23T15:29:55;15.70;99.90
18321;DHT22;54904;54.350;18.664;2023-03-23T15:32:25;15.70;99.90
18321;DHT22;54904;54.350;18.664;2023-03-23T15:34:53;15.70;99.90
18321;DHT22;54904;54.350;18.664;2023-03-23T15:37:25;15.70;99.90
18321;DHT22;54904;54.350;18.664;2023-03-23T15:39:55;15.80;99.90
18321;DHT22;54904;54.350;18.664;2023-03-23T15:42:25;15.70;99.90
18321;DHT22;54904;54.350;18.664;2023-03-23T15:45:06;15.70;99.90
18321;DHT22;54904;54.350;18.664;2023-03-23T15:47:45;15.70;99.90
18321;DHT22;54904;54.350;18.664;2023-03-23T15:50:15;15.70;99.90
18321;DHT22;54904;54.350;18.664;2023-03-23T15:52:43;15.70;99.90
18321;DHT22;54904;54.350;18.664;2023-03-23T15:55:21;15.70;99.90
18321;DHT22;54904;54.350;18.664;2023-03-23T15:57:51;15.70;99.90
18321;DHT22;54904;54.350;18.664;2023-03-23T16:00:20;15.70;99.90
18321;DHT22;54904;54.350;18.664;2023-03-23T16:02:51;15.70;99.90
18321;DHT22;54904;54.350;18.664;2023-03-23T16:05:20;15.70;99.90
18321;DHT22;54904;54.350;18.664;2023-03-23T16:07:47;15.70;99.90